Time;durP1;ratioP1;P1;durP2;ratioP2;P2;SDS_P1;SDS_P2;PMS_P1;PMS_P2;Temp;Humidity;BMP_temperature;BMP_pressure;BME280_temperature;BME280_humidity;BME280_pressure;Samples;Min_cycle;Max_cycle;Signal;HPM_P1;HPM_P2
2023/08/30 00:02:08;;;;;;;4.68;2.95;;;;;;;;;;5018711;28;20029;-77
2023/08/30 00:04:33;;;;;;;3.25;2.72;;;;;;;;;;5022295;28;20030;-77
2023/08/30 00:06:58;;;;;;;3.08;2.70;;;;;;;;;;5019104;28;20033;-79
2023/08/30 00:09:25;;;;;;;2.95;2.50;;;;;;;;;;5021611;28;20121;-77
2023/08/30 00:11:50;;;;;;;3.20;2.05;;;;;;;;;;5023166;28;20052;-77
2023/08/30 00:14:15;;;;;;;2.50;2.10;;;;;;;;;;5020918;28;20026;-76
2023/08/30 00:16:41;;;;;;;1.80;1.70;;;;;;;;;;5017484;28;20037;-77
2023/08/30 00:19:06;;;;;;;2.10;1.90;;;;;;;;;;5024482;28;20040;-79
2023/08/30 00:21:31;;;;;;;2.03;1.83;;;;;;;;;;5019860;28;20038;-77
2023/08/30 00:23:56;;;;;;;1.90;1.80;;;;;;;;;;5015792;28;20133;-77
2023/08/30 00:26:22;;;;;;;2.20;2.00;;;;;;;;;;5008993;28;20038;-80
2023/08/30 00:28:47;;;;;;;1.98;1.77;;;;;;;;;;5072952;28;20111;-78
2023/08/30 00:31:12;;;;;;;2.58;2.00;;;;;;;;;;5004449;28;20034;-77
2023/08/30 00:33:38;;;;;;;2.53;1.80;;;;;;;;;;5005806;28;20511;-77
2023/08/30 00:36:04;;;;;;;2.00;1.90;;;;;;;;;;5009716;28;20021;-79
2023/08/30 00:38:29;;;;;;;2.08;1.98;;;;;;;;;;5019469;28;20021;-77
2023/08/30 00:40:55;;;;;;;1.75;1.65;;;;;;;;;;5019067;28;20032;-77
2023/08/30 00:43:20;;;;;;;1.70;1.60;;;;;;;;;;5018512;28;20082;-77
2023/08/30 00:45:47;;;;;;;2.70;2.00;;;;;;;;;;5018707;28;20440;-77
2023/08/30 00:48:14;;;;;;;2.05;1.95;;;;;;;;;;5006144;28;20030;-77
2023/08/30 00:50:40;;;;;;;1.70;1.60;;;;;;;;;;5006327;28;20102;-77
2023/08/30 00:53:07;;;;;;;2.22;1.75;;;;;;;;;;5007273;28;20033;-77
2023/08/30 00:55:34;;;;;;;1.80;1.70;;;;;;;;;;5007019;28;20055;-77
2023/08/30 00:58:01;;;;;;;2.58;1.70;;;;;;;;;;5019045;28;20102;-77
2023/08/30 01:00:27;;;;;;;1.90;1.80;;;;;;;;;;5020471;27;20052;-77
2023/08/30 01:02:54;;;;;;;1.70;1.60;;;;;;;;;;5022231;28;20148;-77
2023/08/30 01:05:19;;;;;;;1.80;1.70;;;;;;;;;;5015382;28;20060;-77
2023/08/30 01:07:44;;;;;;;2.75;2.10;;;;;;;;;;5018282;28;20454;-80
2023/08/30 01:10:10;;;;;;;1.92;1.83;;;;;;;;;;5082827;28;20040;-77
2023/08/30 01:12:47;;;;;;;1.73;1.63;;;;;;;;;;5071564;28;20065;-77
2023/08/30 01:15:18;;;;;;;1.70;1.58;;;;;;;;;;5016297;28;20412;-77
2023/08/30 01:17:44;;;;;;;1.70;1.60;;;;;;;;;;5018779;28;20032;-77
2023/08/30 01:20:13;;;;;;;4.13;1.60;;;;;;;;;;5018455;28;20033;-77
2023/08/30 01:22:49;;;;;;;1.83;1.73;;;;;;;;;;5079456;28;20061;-77
2023/08/30 01:25:15;;;;;;;2.83;1.63;;;;;;;;;;5016290;28;20061;-79
2023/08/30 01:27:42;;;;;;;1.73;1.63;;;;;;;;;;5019921;28;20105;-80
2023/08/30 01:30:09;;;;;;;1.80;1.70;;;;;;;;;;5020363;28;20034;-77
2023/08/30 01:32:36;;;;;;;2.55;1.80;;;;;;;;;;5016980;28;20093;-77
2023/08/30 01:35:03;;;;;;;1.92;1.73;;;;;;;;;;5017419;28;20033;-77
2023/08/30 01:37:29;;;;;;;2.10;1.90;;;;;;;;;;5009179;28;20149;-77
2023/08/30 01:39:56;;;;;;;2.15;1.90;;;;;;;;;;5001946;28;20058;-77
2023/08/30 01:42:24;;;;;;;2.50;2.00;;;;;;;;;;5004092;28;20079;-76
2023/08/30 01:44:57;;;;;;;2.88;1.80;;;;;;;;;;5005897;28;20048;-77
2023/08/30 01:47:24;;;;;;;1.75;1.65;;;;;;;;;;5071422;28;20034;-77
2023/08/30 01:49:50;;;;;;;2.63;2.08;;;;;;;;;;5072775;28;20596;-77
2023/08/30 01:52:16;;;;;;;4.32;2.30;;;;;;;;;;5006368;28;20034;-77
2023/08/30 01:54:43;;;;;;;5.43;2.65;;;;;;;;;;5072811;28;20030;-77
2023/08/30 01:57:08;;;;;;;3.47;2.08;;;;;;;;;;5011307;27;20025;-76
2023/08/30 01:59:34;;;;;;;3.47;2.20;;;;;;;;;;5077224;28;20097;-77
2023/08/30 02:01:59;;;;;;;4.00;1.90;;;;;;;;;;5020853;28;20496;-79
2023/08/30 02:04:24;;;;;;;1.88;1.77;;;;;;;;;;5070748;28;20026;-77
2023/08/30 02:07:00;;;;;;;2.67;1.88;;;;;;;;;;5012332;28;20026;-77
2023/08/30 02:09:33;;;;;;;2.30;1.90;;;;;;;;;;5004204;28;20054;-77
2023/08/30 02:12:03;;;;;;;3.38;2.35;;;;;;;;;;5014461;28;20464;-77
2023/08/30 02:14:30;;;;;;;2.30;2.03;;;;;;;;;;5004205;28;20129;-77
2023/08/30 02:16:56;;;;;;;2.40;1.95;;;;;;;;;;5012808;28;20057;-77
2023/08/30 02:19:22;;;;;;;1.95;1.75;;;;;;;;;;5106128;27;20068;-77
2023/08/30 02:21:48;;;;;;;1.95;1.85;;;;;;;;;;5020333;28;20049;-80
2023/08/30 02:24:13;;;;;;;3.45;1.70;;;;;;;;;;5021727;28;20029;-77
2023/08/30 02:26:39;;;;;;;2.22;2.05;;;;;;;;;;5022564;28;20078;-76
2023/08/30 02:29:04;;;;;;;2.05;1.92;;;;;;;;;;5024483;28;20082;-77
2023/08/30 02:31:29;;;;;;;2.03;1.70;;;;;;;;;;5020658;28;20034;-78
2023/08/30 02:33:55;;;;;;;1.85;1.75;;;;;;;;;;5019358;28;20121;-77
2023/08/30 02:36:20;;;;;;;3.65;2.10;;;;;;;;;;5022329;28;20049;-77
2023/08/30 02:38:45;;;;;;;1.92;1.60;;;;;;;;;;5078646;28;20433;-77
2023/08/30 02:41:10;;;;;;;1.85;1.73;;;;;;;;;;5025110;27;20033;-77
2023/08/30 02:43:36;;;;;;;1.70;1.60;;;;;;;;;;5022531;28;20084;-78
2023/08/30 02:46:03;;;;;;;1.80;1.70;;;;;;;;;;5065379;28;20034;-77
2023/08/30 02:48:29;;;;;;;2.20;1.52;;;;;;;;;;5020131;28;20079;-77
2023/08/30 02:50:54;;;;;;;1.90;1.80;;;;;;;;;;5021885;28;20484;-77
2023/08/30 02:53:19;;;;;;;3.38;1.67;;;;;;;;;;5024694;28;20284;-78
2023/08/30 02:55:47;;;;;;;2.85;1.55;;;;;;;;;;5021328;28;20038;-77
2023/08/30 02:58:12;;;;;;;1.90;1.70;;;;;;;;;;5023224;28;20095;-77
2023/08/30 03:00:38;;;;;;;2.00;1.80;;;;;;;;;;5021314;28;20709;-77
2023/08/30 03:03:03;;;;;;;2.15;1.80;;;;;;;;;;5021656;27;20033;-77
2023/08/30 03:05:29;;;;;;;2.20;1.80;;;;;;;;;;5018861;28;20507;-77
2023/08/30 03:07:54;;;;;;;1.65;1.55;;;;;;;;;;5075110;28;20034;-77
2023/08/30 03:10:19;;;;;;;1.80;1.70;;;;;;;;;;5066139;28;20041;-77
2023/08/30 03:12:45;;;;;;;5.40;1.98;;;;;;;;;;5021365;28;20045;-77
2023/08/30 03:15:11;;;;;;;2.13;2.03;;;;;;;;;;5020756;28;20543;-77
2023/08/30 03:17:36;;;;;;;1.85;1.75;;;;;;;;;;5021157;28;20526;-77
2023/08/30 03:20:03;;;;;;;3.17;1.88;;;;;;;;;;5022725;28;20038;-77
2023/08/30 03:22:29;;;;;;;1.80;1.70;;;;;;;;;;5019625;28;20037;-78
2023/08/30 03:24:54;;;;;;;4.20;2.00;;;;;;;;;;5104884;27;20034;-78
2023/08/30 03:27:19;;;;;;;1.98;1.58;;;;;;;;;;5020864;27;20041;-77
2023/08/30 03:29:45;;;;;;;2.10;2.00;;;;;;;;;;5023995;28;20021;-77
2023/08/30 03:32:13;;;;;;;1.80;1.70;;;;;;;;;;5020559;27;20029;-77
2023/08/30 03:34:38;;;;;;;2.83;1.50;;;;;;;;;;5020230;28;20445;-77
2023/08/30 03:37:03;;;;;;;2.03;1.83;;;;;;;;;;5021879;28;20038;-77
2023/08/30 03:39:29;;;;;;;1.85;1.70;;;;;;;;;;5018866;27;20030;-77
2023/08/30 03:41:54;;;;;;;2.00;1.90;;;;;;;;;;5019773;28;20095;-76
2023/08/30 03:44:20;;;;;;;2.00;1.65;;;;;;;;;;5023666;28;20125;-78
2023/08/30 03:46:45;;;;;;;2.53;1.85;;;;;;;;;;5018914;28;20038;-77
2023/08/30 03:49:11;;;;;;;1.90;1.75;;;;;;;;;;5082633;28;20113;-77
2023/08/30 03:51:36;;;;;;;2.47;2.28;;;;;;;;;;5067066;28;20030;-75
2023/08/30 03:54:01;;;;;;;2.10;2.00;;;;;;;;;;5028818;28;20017;-74
2023/08/30 03:56:27;;;;;;;2.15;1.98;;;;;;;;;;5021392;27;20057;-73
2023/08/30 03:58:52;;;;;;;2.65;2.30;;;;;;;;;;5043981;28;20042;-76
2023/08/30 04:01:17;;;;;;;4.28;2.60;;;;;;;;;;5012418;28;20030;-76
2023/08/30 04:03:42;;;;;;;2.33;2.10;;;;;;;;;;5042228;28;20042;-76
2023/08/30 04:06:08;;;;;;;5.57;2.75;;;;;;;;;;5020189;28;20477;-76
2023/08/30 04:08:33;;;;;;;2.55;2.00;;;;;;;;;;5018503;28;20033;-76
2023/08/30 04:10:58;;;;;;;4.60;2.70;;;;;;;;;;5011669;28;20030;-76
2023/08/30 04:13:24;;;;;;;2.30;2.10;;;;;;;;;;5023808;28;20033;-76
2023/08/30 04:15:49;;;;;;;3.28;2.10;;;;;;;;;;5014264;27;20050;-76
2023/08/30 04:18:14;;;;;;;2.60;1.98;;;;;;;;;;4999518;28;20022;-75
2023/08/30 04:20:44;;;;;;;2.70;1.98;;;;;;;;;;5013590;28;20270;-75
2023/08/30 04:23:09;;;;;;;3.00;2.30;;;;;;;;;;5033022;28;20632;-75
2023/08/30 04:25:35;;;;;;;7.13;2.28;;;;;;;;;;5007872;28;20129;-76
2023/08/30 04:28:00;;;;;;;4.78;1.90;;;;;;;;;;5063328;28;20045;-75
2023/08/30 04:30:25;;;;;;;3.65;2.10;;;;;;;;;;5010794;28;20085;-75
2023/08/30 04:32:51;;;;;;;2.88;2.50;;;;;;;;;;5017440;28;20495;-75
2023/08/30 04:35:16;;;;;;;2.55;2.22;;;;;;;;;;5016367;28;20030;-75
2023/08/30 04:37:42;;;;;;;4.07;2.30;;;;;;;;;;5014396;28;20038;-75
2023/08/30 04:40:11;;;;;;;2.63;2.33;;;;;;;;;;5044464;28;20433;-74
2023/08/30 04:42:37;;;;;;;2.78;2.55;;;;;;;;;;5072163;28;20531;-75
2023/08/30 04:45:03;;;;;;;2.67;2.47;;;;;;;;;;5013722;28;20109;-75
2023/08/30 04:47:30;;;;;;;4.25;2.80;;;;;;;;;;5013599;28;20025;-77
2023/08/30 04:49:55;;;;;;;3.70;2.67;;;;;;;;;;5016716;28;20057;-74
2023/08/30 04:52:20;;;;;;;2.53;2.28;;;;;;;;;;5081743;28;20081;-76
2023/08/30 04:54:45;;;;;;;3.95;2.47;;;;;;;;;;5021251;28;20029;-77
2023/08/30 04:57:16;;;;;;;2.97;2.65;;;;;;;;;;5019512;28;20025;-76
2023/08/30 04:59:41;;;;;;;3.35;2.55;;;;;;;;;;5031659;28;20475;-76
2023/08/30 05:02:06;;;;;;;4.43;2.67;;;;;;;;;;5018152;28;20033;-75
2023/08/30 05:04:32;;;;;;;2.47;2.28;;;;;;;;;;5019481;28;20030;-77
2023/08/30 05:06:57;;;;;;;3.10;2.60;;;;;;;;;;5010453;28;20086;-77
2023/08/30 05:11:53;;;;;;;2.33;2.20;;;;;;;;;;5002882;28;20053;-84
2023/08/30 05:14:19;;;;;;;4.35;2.65;;;;;;;;;;5001989;28;20037;-82
2023/08/30 05:16:45;;;;;;;3.20;2.17;;;;;;;;;;5002073;28;20048;-83
2023/08/30 05:19:10;;;;;;;3.33;2.40;;;;;;;;;;4995755;28;20030;-82
2023/08/30 05:21:36;;;;;;;2.47;2.28;;;;;;;;;;5001041;28;20377;-80
2023/08/30 05:24:01;;;;;;;5.20;2.50;;;;;;;;;;5009188;28;20114;-80
2023/08/30 05:26:27;;;;;;;2.20;2.10;;;;;;;;;;5002998;28;20117;-83
2023/08/30 05:28:52;;;;;;;3.28;2.38;;;;;;;;;;4998248;28;20078;-81
2023/08/30 05:31:17;;;;;;;2.63;2.10;;;;;;;;;;4992652;28;20037;-83
2023/08/30 05:33:42;;;;;;;2.40;2.08;;;;;;;;;;4998598;28;20045;-81
2023/08/30 05:36:08;;;;;;;2.50;2.30;;;;;;;;;;4999168;28;20030;-81
2023/08/30 05:38:33;;;;;;;3.00;2.10;;;;;;;;;;4992457;28;20037;-83
2023/08/30 05:40:58;;;;;;;4.97;1.95;;;;;;;;;;5016102;28;20026;-82
2023/08/30 05:43:24;;;;;;;4.43;2.40;;;;;;;;;;5030782;28;20041;-83
2023/08/30 05:45:49;;;;;;;2.58;2.20;;;;;;;;;;5009889;28;20042;-82
2023/08/30 05:48:14;;;;;;;2.72;2.15;;;;;;;;;;5005927;28;20499;-83
2023/08/30 05:50:40;;;;;;;2.53;2.20;;;;;;;;;;5007313;28;20353;-82
2023/08/30 05:53:06;;;;;;;2.42;2.00;;;;;;;;;;5009657;28;20091;-82
2023/08/30 05:55:31;;;;;;;2.33;2.13;;;;;;;;;;5001350;28;20050;-82
2023/08/30 05:57:56;;;;;;;2.10;2.00;;;;;;;;;;5007235;28;20061;-79
2023/08/30 06:00:22;;;;;;;1.90;1.80;;;;;;;;;;5005187;28;20019;-80
2023/08/30 06:02:47;;;;;;;2.08;1.90;;;;;;;;;;5002329;28;20117;-83
2023/08/30 06:05:12;;;;;;;2.13;2.03;;;;;;;;;;4986765;28;20031;-80
2023/08/30 06:07:38;;;;;;;2.53;2.33;;;;;;;;;;5012668;28;20042;-80
2023/08/30 06:10:04;;;;;;;3.45;2.35;;;;;;;;;;5020532;28;20030;-83
2023/08/30 06:12:30;;;;;;;3.40;2.55;;;;;;;;;;5005065;28;20034;-82
2023/08/30 06:14:55;;;;;;;2.70;2.50;;;;;;;;;;5014605;28;20028;-80
2023/08/30 06:17:21;;;;;;;2.70;2.30;;;;;;;;;;5022402;28;20096;-81
2023/08/30 06:19:47;;;;;;;3.53;2.40;;;;;;;;;;5000686;28;20030;-83
2023/08/30 06:22:12;;;;;;;3.10;2.28;;;;;;;;;;5011966;28;20480;-84
2023/08/30 06:24:37;;;;;;;4.40;2.90;;;;;;;;;;5005155;28;20106;-82
2023/08/30 06:27:03;;;;;;;2.63;2.38;;;;;;;;;;5003080;28;20062;-81
2023/08/30 06:29:29;;;;;;;2.78;2.58;;;;;;;;;;5008726;28;20483;-83
2023/08/30 06:31:54;;;;;;;2.97;2.75;;;;;;;;;;4998774;28;20043;-82
2023/08/30 06:34:19;;;;;;;2.60;2.40;;;;;;;;;;5022393;28;20034;-82
2023/08/30 06:36:45;;;;;;;4.50;2.80;;;;;;;;;;5017035;28;20164;-83
2023/08/30 06:39:10;;;;;;;2.97;2.70;;;;;;;;;;5002563;28;20041;-79
2023/08/30 06:41:36;;;;;;;2.83;2.50;;;;;;;;;;5008605;28;20500;-80
2023/08/30 06:44:01;;;;;;;3.65;2.92;;;;;;;;;;4983086;28;20046;-83
2023/08/30 06:46:26;;;;;;;3.83;2.90;;;;;;;;;;4996347;28;20125;-82
2023/08/30 06:48:52;;;;;;;3.53;2.83;;;;;;;;;;4982416;28;20389;-83
2023/08/30 06:51:17;;;;;;;3.33;2.65;;;;;;;;;;5001218;28;20029;-84
2023/08/30 06:53:42;;;;;;;3.47;2.70;;;;;;;;;;5001995;28;20099;-78
2023/08/30 06:56:07;;;;;;;3.63;2.38;;;;;;;;;;5002474;28;20036;-82
2023/08/30 06:58:33;;;;;;;2.65;2.45;;;;;;;;;;5000340;28;20042;-84
2023/08/30 07:00:58;;;;;;;5.50;2.58;;;;;;;;;;5003367;28;20030;-85
2023/08/30 07:03:24;;;;;;;2.70;2.50;;;;;;;;;;5007554;28;20053;-83
2023/08/30 07:05:51;;;;;;;3.20;2.25;;;;;;;;;;5020803;28;20376;-81
2023/08/30 07:08:16;;;;;;;7.18;2.55;;;;;;;;;;5017103;28;20033;-82
2023/08/30 07:10:42;;;;;;;2.72;2.30;;;;;;;;;;5021056;28;20048;-83
2023/08/30 07:13:11;;;;;;;3.05;2.08;;;;;;;;;;5012829;28;20046;-83
2023/08/30 07:15:38;;;;;;;3.53;2.00;;;;;;;;;;5008005;28;20040;-81
2023/08/30 07:18:03;;;;;;;1.67;1.60;;;;;;;;;;5004562;28;20035;-80
2023/08/30 07:20:29;;;;;;;2.05;1.80;;;;;;;;;;5007883;28;20029;-81
2023/08/30 07:22:54;;;;;;;1.90;1.80;;;;;;;;;;5006565;28;20042;-82
2023/08/30 07:25:20;;;;;;;1.88;1.77;;;;;;;;;;5013325;28;20513;-79
2023/08/30 07:27:45;;;;;;;2.25;1.90;;;;;;;;;;5004398;28;20044;-84
2023/08/30 07:30:11;;;;;;;3.83;2.08;;;;;;;;;;5010848;28;20018;-82
2023/08/30 07:32:37;;;;;;;2.05;1.90;;;;;;;;;;5002076;28;20039;-83
2023/08/30 07:35:03;;;;;;;2.33;1.85;;;;;;;;;;5017282;28;20112;-82
2023/08/30 07:37:28;;;;;;;3.65;1.73;;;;;;;;;;5005594;28;20061;-79
2023/08/30 07:39:54;;;;;;;6.53;2.40;;;;;;;;;;4999753;28;20038;-81
2023/08/30 07:42:20;;;;;;;1.88;1.77;;;;;;;;;;5000910;28;20022;-81
2023/08/30 07:44:45;;;;;;;3.97;1.85;;;;;;;;;;4986151;28;20034;-82
2023/08/30 07:47:11;;;;;;;2.80;2.10;;;;;;;;;;5013153;28;20376;-80
2023/08/30 07:49:36;;;;;;;4.47;2.28;;;;;;;;;;5001290;28;20034;-83
2023/08/30 07:52:02;;;;;;;2.75;2.00;;;;;;;;;;5003144;28;20039;-81
2023/08/30 07:54:28;;;;;;;3.83;2.00;;;;;;;;;;4987745;28;20056;-83
2023/08/30 07:56:53;;;;;;;2.05;1.95;;;;;;;;;;5003752;28;20158;-83
2023/08/30 07:59:18;;;;;;;2.60;2.17;;;;;;;;;;5006008;28;20568;-83
2023/08/30 08:01:44;;;;;;;1.90;1.80;;;;;;;;;;5000033;28;20035;-82
2023/08/30 08:04:09;;;;;;;2.22;2.08;;;;;;;;;;5002266;28;20470;-83
2023/08/30 08:06:34;;;;;;;5.65;2.17;;;;;;;;;;5003392;28;20116;-81
2023/08/30 08:09:00;;;;;;;4.57;1.95;;;;;;;;;;5013727;28;20030;-83
2023/08/30 08:11:26;;;;;;;1.92;1.73;;;;;;;;;;5007018;28;20121;-83
2023/08/30 08:13:51;;;;;;;1.73;1.60;;;;;;;;;;5004555;28;20397;-82
2023/08/30 08:16:16;;;;;;;1.80;1.70;;;;;;;;;;5011314;28;20085;-80
2023/08/30 08:19:24;;;;;;;2.13;1.90;;;;;;;;;;5006267;28;20095;-80
2023/08/30 08:21:31;;;;;;;2.10;1.90;;;;;;;;;;5001664;28;20042;-81
2023/08/30 08:23:56;;;;;;;2.08;1.90;;;;;;;;;;5004698;28;20034;-79
2023/08/30 08:26:21;;;;;;;2.08;1.98;;;;;;;;;;4999002;28;20117;-82
2023/08/30 08:28:46;;;;;;;1.83;1.70;;;;;;;;;;5004108;28;20419;-80
2023/08/30 08:31:12;;;;;;;1.90;1.80;;;;;;;;;;5002546;28;20034;-81
2023/08/30 08:33:37;;;;;;;1.95;1.80;;;;;;;;;;5005931;28;20487;-80
2023/08/30 08:36:02;;;;;;;1.90;1.80;;;;;;;;;;5008133;28;20026;-80
2023/08/30 08:38:28;;;;;;;2.28;1.90;;;;;;;;;;5001600;28;20102;-80
2023/08/30 08:41:01;;;;;;;1.90;1.80;;;;;;;;;;5008961;28;20038;-82
2023/08/30 08:43:28;;;;;;;2.10;2.00;;;;;;;;;;5004398;28;20133;-82
2023/08/30 08:45:57;;;;;;;7.80;2.40;;;;;;;;;;5071205;28;20042;-83
2023/08/30 08:48:24;;;;;;;2.22;1.90;;;;;;;;;;4997553;28;20022;-83
2023/08/30 08:50:49;;;;;;;2.90;1.85;;;;;;;;;;5069138;28;20026;-82
2023/08/30 08:53:14;;;;;;;3.75;2.38;;;;;;;;;;5007483;28;20041;-83
2023/08/30 08:55:41;;;;;;;2.08;1.98;;;;;;;;;;5003229;28;20041;-81
2023/08/30 08:58:07;;;;;;;4.25;2.33;;;;;;;;;;4997896;28;20026;-83
2023/08/30 09:00:32;;;;;;;2.70;2.13;;;;;;;;;;4993780;28;20045;-82
2023/08/30 09:02:58;;;;;;;2.35;2.13;;;;;;;;;;5002584;28;20551;-78
2023/08/30 09:05:24;;;;;;;2.72;2.30;;;;;;;;;;4995344;28;20037;-82
2023/08/30 09:07:53;;;;;;;2.30;2.10;;;;;;;;;;5001985;28;20399;-82
2023/08/30 09:10:19;;;;;;;2.00;1.70;;;;;;;;;;4999321;28;20080;-81
2023/08/30 09:12:44;;;;;;;2.90;1.90;;;;;;;;;;5000097;28;20035;-83
2023/08/30 09:15:09;;;;;;;5.30;2.00;;;;;;;;;;4997996;28;20018;-82
2023/08/30 09:17:39;;;;;;;2.33;2.10;;;;;;;;;;5014739;28;20076;-81
2023/08/30 09:20:12;;;;;;;3.67;1.88;;;;;;;;;;5003071;28;20045;-83
2023/08/30 09:22:42;;;;;;;2.03;1.83;;;;;;;;;;5003810;28;20042;-79
2023/08/30 09:25:22;;;;;;;3.92;1.80;;;;;;;;;;5001142;28;20041;-83
2023/08/30 09:27:47;;;;;;;1.73;1.63;;;;;;;;;;5002691;28;20030;-81
2023/08/30 09:30:13;;;;;;;2.88;1.90;;;;;;;;;;5018028;28;20091;-82
2023/08/30 09:32:41;;;;;;;3.85;1.80;;;;;;;;;;5000661;28;20030;-82
2023/08/30 09:35:07;;;;;;;2.45;1.83;;;;;;;;;;5011311;28;20048;-82
2023/08/30 09:37:33;;;;;;;1.83;1.73;;;;;;;;;;5073204;28;20046;-82
2023/08/30 09:39:58;;;;;;;1.70;1.60;;;;;;;;;;4995373;28;20084;-80
2023/08/30 09:42:24;;;;;;;3.90;1.73;;;;;;;;;;4998144;28;20032;-81
2023/08/30 09:45:09;;;;;;;2.17;1.70;;;;;;;;;;5000662;28;20498;-79
2023/08/30 09:47:35;;;;;;;2.15;1.88;;;;;;;;;;4982287;28;20038;-80
2023/08/30 09:50:02;;;;;;;1.80;1.70;;;;;;;;;;4996020;28;20034;-81
2023/08/30 09:52:30;;;;;;;2.13;1.95;;;;;;;;;;4998748;28;20148;-78
2023/08/30 09:54:56;;;;;;;5.47;2.00;;;;;;;;;;5009431;28;20034;-82
2023/08/30 09:57:22;;;;;;;2.17;1.70;;;;;;;;;;4995118;28;20461;-81
2023/08/30 09:59:48;;;;;;;2.92;2.25;;;;;;;;;;4997083;28;20022;-81
2023/08/30 10:02:14;;;;;;;3.15;2.20;;;;;;;;;;4998753;28;20030;-82
2023/08/30 10:04:40;;;;;;;2.80;2.28;;;;;;;;;;5006044;28;20051;-82
2023/08/30 10:07:06;;;;;;;2.50;2.30;;;;;;;;;;5013647;28;20082;-82
2023/08/30 10:09:32;;;;;;;3.08;2.03;;;;;;;;;;4996454;28;20088;-83
2023/08/30 10:11:58;;;;;;;2.85;2.05;;;;;;;;;;5071227;28;20125;-83
2023/08/30 10:14:24;;;;;;;1.73;1.63;;;;;;;;;;5006142;28;20272;-81
2023/08/30 10:16:51;;;;;;;3.00;1.98;;;;;;;;;;5006736;28;20083;-81
2023/08/30 10:19:26;;;;;;;2.33;2.10;;;;;;;;;;4996410;28;20061;-80
2023/08/30 10:22:05;;;;;;;2.88;1.90;;;;;;;;;;5002410;28;20140;-83
2023/08/30 10:24:36;;;;;;;5.13;2.28;;;;;;;;;;4995874;28;20043;-82
2023/08/30 10:27:04;;;;;;;2.88;2.20;;;;;;;;;;5002629;28;20481;-82
2023/08/30 10:29:32;;;;;;;3.67;2.00;;;;;;;;;;5007379;28;20558;-83
2023/08/30 10:32:03;;;;;;;2.00;1.85;;;;;;;;;;5008891;28;20491;-80
2023/08/30 10:34:35;;;;;;;1.90;1.80;;;;;;;;;;4998996;28;20041;-78
2023/08/30 10:37:02;;;;;;;2.08;1.88;;;;;;;;;;4997617;28;20032;-79
2023/08/30 10:39:39;;;;;;;1.70;1.60;;;;;;;;;;4998405;28;20052;-80
2023/08/30 10:42:15;;;;;;;1.60;1.50;;;;;;;;;;4994825;28;20026;-82
2023/08/30 10:44:51;;;;;;;1.90;1.70;;;;;;;;;;5006603;28;20030;-82
2023/08/30 10:47:30;;;;;;;2.60;1.85;;;;;;;;;;5010825;28;20052;-80
2023/08/30 10:49:57;;;;;;;1.70;1.60;;;;;;;;;;5005130;28;20042;-80
2023/08/30 10:52:24;;;;;;;1.88;1.70;;;;;;;;;;5003307;28;20037;-80
2023/08/30 10:54:50;;;;;;;2.35;1.60;;;;;;;;;;4983337;28;20125;-79
2023/08/30 10:57:24;;;;;;;1.98;1.58;;;;;;;;;;5006743;28;20458;-80
2023/08/30 11:00:18;;;;;;;1.70;1.50;;;;;;;;;;5001842;28;20030;-82
2023/08/30 11:02:53;;;;;;;1.70;1.60;;;;;;;;;;5004577;28;20042;-81
2023/08/30 11:05:30;;;;;;;1.50;1.40;;;;;;;;;;4979039;28;20043;-80
2023/08/30 11:07:55;;;;;;;1.30;1.30;;;;;;;;;;5039316;23;20054;-79
2023/08/30 11:10:21;;;;;;;1.48;1.38;;;;;;;;;;5112306;28;20039;-79
2023/08/30 11:12:49;;;;;;;1.52;1.42;;;;;;;;;;5111548;28;20130;-80
2023/08/30 11:15:14;;;;;;;1.75;1.50;;;;;;;;;;5112859;28;20404;-80
2023/08/30 11:17:44;;;;;;;1.80;1.23;;;;;;;;;;5109576;28;20019;-80
2023/08/30 11:20:13;;;;;;;3.28;1.30;;;;;;;;;;5103617;28;20057;-80
2023/08/30 11:22:41;;;;;;;1.30;1.20;;;;;;;;;;5114054;28;20400;-80
2023/08/30 11:25:08;;;;;;;1.85;1.13;;;;;;;;;;5103856;28;20039;-80
2023/08/30 11:27:33;;;;;;;1.13;1.13;;;;;;;;;;5105236;28;20054;-80
2023/08/30 11:30:02;;;;;;;1.40;1.30;;;;;;;;;;5109388;28;20099;-80
2023/08/30 11:32:27;;;;;;;1.15;1.10;;;;;;;;;;5096650;28;20405;-77
2023/08/30 11:34:57;;;;;;;3.10;1.25;;;;;;;;;;5104605;28;20036;-78
2023/08/30 11:37:23;;;;;;;2.83;1.00;;;;;;;;;;5100600;28;20036;-78
2023/08/30 11:39:52;;;;;;;1.00;1.00;;;;;;;;;;5103243;28;20129;-77
2023/08/30 11:42:19;;;;;;;1.30;1.20;;;;;;;;;;5094382;28;20023;-79
2023/08/30 11:44:45;;;;;;;2.78;1.02;;;;;;;;;;5096062;28;20036;-78
2023/08/30 11:47:10;;;;;;;1.52;1.10;;;;;;;;;;5110131;28;20239;-77
2023/08/30 11:49:36;;;;;;;1.02;0.93;;;;;;;;;;5108224;28;20059;-78
2023/08/30 11:52:02;;;;;;;2.67;1.20;;;;;;;;;;5092920;28;20039;-77
2023/08/30 11:54:28;;;;;;;1.25;1.10;;;;;;;;;;5091528;28;20036;-78
2023/08/30 11:56:53;;;;;;;2.83;0.98;;;;;;;;;;5093528;28;20067;-78
2023/08/30 11:59:22;;;;;;;1.05;1.00;;;;;;;;;;5094099;28;20050;-78
2023/08/30 12:01:49;;;;;;;1.05;1.00;;;;;;;;;;5110022;27;20066;-78
2023/08/30 12:04:15;;;;;;;2.08;1.20;;;;;;;;;;5108212;28;20032;-78
2023/08/30 12:06:41;;;;;;;1.40;1.30;;;;;;;;;;5105248;28;20080;-78
2023/08/30 12:09:12;;;;;;;2.35;1.25;;;;;;;;;;5104608;28;20027;-78
2023/08/30 12:11:37;;;;;;;1.42;1.33;;;;;;;;;;5105538;28;20491;-78
2023/08/30 12:14:02;;;;;;;1.27;1.20;;;;;;;;;;5104465;28;20032;-78
2023/08/30 12:16:28;;;;;;;4.82;1.30;;;;;;;;;;5107476;28;20176;-78
2023/08/30 12:18:53;;;;;;;1.65;1.55;;;;;;;;;;5104850;28;20031;-78
2023/08/30 12:21:18;;;;;;;1.85;1.75;;;;;;;;;;5107778;27;20020;-77
2023/08/30 12:23:44;;;;;;;1.65;1.33;;;;;;;;;;5108397;28;20020;-78
2023/08/30 12:26:10;;;;;;;2.10;1.30;;;;;;;;;;5103791;28;20028;-77
2023/08/30 12:28:38;;;;;;;2.95;1.45;;;;;;;;;;5105182;28;20489;-78
2023/08/30 12:31:04;;;;;;;1.38;1.20;;;;;;;;;;5106821;28;20026;-78
2023/08/30 12:33:30;;;;;;;1.55;1.40;;;;;;;;;;5108320;28;20020;-78
2023/08/30 12:35:56;;;;;;;3.90;1.42;;;;;;;;;;5106640;28;20028;-78
2023/08/30 12:38:22;;;;;;;1.35;1.25;;;;;;;;;;5104975;28;20044;-78
2023/08/30 12:40:49;;;;;;;1.63;1.40;;;;;;;;;;5106629;28;20051;-78
2023/08/30 12:43:15;;;;;;;2.80;2.00;;;;;;;;;;5106394;28;20090;-78
2023/08/30 12:45:41;;;;;;;2.40;1.40;;;;;;;;;;5107461;28;20121;-78
2023/08/30 12:48:12;;;;;;;1.48;1.38;;;;;;;;;;5105785;28;20046;-77
2023/08/30 12:50:38;;;;;;;2.63;1.40;;;;;;;;;;5106932;28;20028;-77
2023/08/30 12:53:05;;;;;;;2.13;1.40;;;;;;;;;;5104245;28;20043;-80
2023/08/30 12:55:30;;;;;;;1.75;1.50;;;;;;;;;;5110041;28;20036;-77
2023/08/30 12:57:57;;;;;;;1.27;1.27;;;;;;;;;;5107605;27;20047;-79
2023/08/30 13:00:22;;;;;;;1.58;1.48;;;;;;;;;;5101620;28;20118;-77
2023/08/30 13:02:48;;;;;;;1.50;1.33;;;;;;;;;;5105338;28;20050;-78
2023/08/30 13:05:13;;;;;;;1.48;1.38;;;;;;;;;;5105656;28;20035;-78
2023/08/30 13:07:39;;;;;;;1.50;1.40;;;;;;;;;;5108608;28;20052;-78
2023/08/30 13:10:08;;;;;;;1.20;1.10;;;;;;;;;;5103685;28;20039;-78
2023/08/30 13:12:33;;;;;;;1.00;1.00;;;;;;;;;;5104456;28;20111;-78
2023/08/30 13:14:58;;;;;;;1.30;1.20;;;;;;;;;;5104979;28;20106;-78
2023/08/30 13:17:24;;;;;;;0.93;0.90;;;;;;;;;;5102256;28;20538;-78
2023/08/30 13:19:49;;;;;;;2.97;1.55;;;;;;;;;;5122041;27;20032;-78
2023/08/30 13:22:15;;;;;;;1.40;1.30;;;;;;;;;;5092081;28;20037;-78
2023/08/30 13:24:40;;;;;;;5.55;2.85;;;;;;;;;;5095607;28;20481;-78
2023/08/30 13:27:06;;;;;;;1.52;1.30;;;;;;;;;;5095533;27;20043;-78
2023/08/30 13:29:31;;;;;;;1.60;1.50;;;;;;;;;;5092020;28;20023;-78
2023/08/30 13:31:57;;;;;;;1.10;1.10;;;;;;;;;;5108154;28;20038;-78
2023/08/30 13:34:22;;;;;;;2.15;1.30;;;;;;;;;;5099864;28;20036;-78
2023/08/30 13:36:47;;;;;;;1.48;1.25;;;;;;;;;;5104289;28;20034;-78
2023/08/30 13:39:12;;;;;;;1.30;1.00;;;;;;;;;;5104672;28;20015;-80
2023/08/30 13:41:38;;;;;;;1.52;1.42;;;;;;;;;;5106547;28;20051;-78
2023/08/30 13:44:03;;;;;;;1.20;1.20;;;;;;;;;;5104478;28;20046;-78
2023/08/30 13:46:31;;;;;;;2.05;1.20;;;;;;;;;;5103851;28;20028;-78
2023/08/30 13:48:56;;;;;;;6.45;4.88;;;;;;;;;;5106444;28;20040;-78
2023/08/30 13:51:23;;;;;;;3.35;2.22;;;;;;;;;;5104457;28;20044;-78
2023/08/30 13:53:49;;;;;;;3.55;1.33;;;;;;;;;;5102395;28;20034;-79
2023/08/30 13:56:14;;;;;;;1.27;1.27;;;;;;;;;;5108813;28;20043;-79
2023/08/30 13:58:40;;;;;;;2.83;1.30;;;;;;;;;;5104744;28;20388;-79
2023/08/30 14:01:05;;;;;;;2.00;1.35;;;;;;;;;;5102476;28;20048;-79
2023/08/30 14:03:31;;;;;;;1.67;1.58;;;;;;;;;;5108513;28;20058;-79
2023/08/30 14:05:56;;;;;;;1.60;1.10;;;;;;;;;;5106748;28;20027;-79
2023/08/30 14:08:22;;;;;;;1.20;1.10;;;;;;;;;;5104358;28;20066;-79
2023/08/30 14:10:47;;;;;;;1.55;1.17;;;;;;;;;;5107138;28;20213;-79
2023/08/30 14:13:12;;;;;;;1.88;1.42;;;;;;;;;;5106841;28;20035;-79
2023/08/30 14:15:38;;;;;;;1.83;1.27;;;;;;;;;;5102925;28;20127;-79
2023/08/30 14:18:03;;;;;;;1.10;1.10;;;;;;;;;;5104485;28;20022;-79
2023/08/30 14:20:29;;;;;;;1.60;1.50;;;;;;;;;;5111283;28;20031;-79
2023/08/30 14:22:54;;;;;;;2.72;2.00;;;;;;;;;;5113822;28;20109;-79
2023/08/30 14:25:19;;;;;;;1.42;1.33;;;;;;;;;;5107929;28;20101;-79
2023/08/30 14:27:45;;;;;;;3.10;1.40;;;;;;;;;;5110013;28;20032;-79
2023/08/30 14:30:10;;;;;;;1.30;1.20;;;;;;;;;;5105227;28;20026;-78
2023/08/30 14:32:36;;;;;;;1.30;1.20;;;;;;;;;;5101415;28;20031;-78
2023/08/30 14:35:03;;;;;;;1.08;1.08;;;;;;;;;;5095919;28;20036;-79
2023/08/30 14:37:28;;;;;;;8.55;1.50;;;;;;;;;;5098204;28;20047;-79
2023/08/30 14:39:54;;;;;;;2.33;1.52;;;;;;;;;;5105481;28;20279;-78
2023/08/30 14:42:20;;;;;;;1.85;1.73;;;;;;;;;;5107126;28;20020;-79